Time;durP1;ratioP1;P1;durP2;ratioP2;P2;SDS_P1;SDS_P2;PMS_P1;PMS_P2;Temp;Humidity;BMP_temperature;BMP_pressure;BME280_temperature;BME280_humidity;BME280_pressure;Samples;Min_cycle;Max_cycle;Signal;HPM_P1;HPM_P2
2022/11/20 00:01:25;;;;;;;41.48;27.20;;;;;;;-0.55;75.10;100971.66;1706063;82;21173;-85
2022/11/20 00:03:53;;;;;;;42.65;26.90;;;;;;;-0.55;75.03;100969.97;1670264;83;21055;-84
2022/11/20 00:06:20;;;;;;;42.25;26.48;;;;;;;-0.55;75.10;100975.14;1694404;82;21743;-84
2022/11/20 00:08:47;;;;;;;45.28;28.55;;;;;;;-0.54;75.10;100970.48;1705731;82;21062;-85
2022/11/20 00:11:17;;;;;;;45.30;28.35;;;;;;;-0.52;75.08;100974.08;1701839;82;21136;-85
2022/11/20 00:13:44;;;;;;;43.33;27.45;;;;;;;-0.53;75.08;100970.09;1705528;82;21113;-85
2022/11/20 00:16:13;;;;;;;44.67;27.73;;;;;;;-0.55;74.98;100970.38;1707919;82;22258;-82
2022/11/20 00:18:42;;;;;;;40.28;26.57;;;;;;;-0.54;75.02;100972.19;1697312;82;21738;-81
2022/11/20 00:21:18;;;;;;;48.13;28.45;;;;;;;-0.54;74.99;100971.78;1700218;82;50185;-85
2022/11/20 00:23:44;;;;;;;43.52;28.05;;;;;;;-0.59;74.96;100967.55;1694133;81;21072;-81
2022/11/20 00:26:16;;;;;;;42.67;28.23;;;;;;;-0.62;74.92;100963.84;1702909;82;21040;-84
2022/11/20 00:28:44;;;;;;;44.55;28.12;;;;;;;-0.68;74.77;100959.52;1709171;82;21073;-85
2022/11/20 00:31:15;;;;;;;42.75;27.95;;;;;;;-0.74;74.72;100959.97;1705058;82;21818;-85
2022/11/20 00:33:42;;;;;;;39.63;26.33;;;;;;;-0.80;74.73;100959.13;1706513;82;21058;-86
2022/11/20 00:36:15;;;;;;;42.38;26.75;;;;;;;-0.90;74.66;100956.67;1705753;82;21064;-85
2022/11/20 00:38:41;;;;;;;43.70;27.48;;;;;;;-0.94;74.80;100961.48;1709196;82;21046;-85
2022/11/20 00:41:10;;;;;;;46.35;27.45;;;;;;;-0.96;74.93;100965.23;1709119;82;21563;-85
2022/11/20 00:43:43;;;;;;;45.52;28.00;;;;;;;-0.94;75.08;100962.77;1707866;82;22493;-85
2022/11/20 00:46:16;;;;;;;44.13;26.80;;;;;;;-0.91;75.11;100965.59;1704296;82;21275;-85
2022/11/20 00:48:43;;;;;;;39.80;26.62;;;;;;;-0.90;75.08;100963.50;1701170;82;25332;-85
2022/11/20 00:51:10;;;;;;;36.73;25.90;;;;;;;-0.93;75.08;100966.77;1697456;82;21126;-85
2022/11/20 00:53:37;;;;;;;42.55;27.22;;;;;;;-0.92;75.11;100968.95;1659164;82;21039;-85
2022/11/20 00:56:06;;;;;;;39.25;25.82;;;;;;;-0.90;75.21;100973.47;1705334;82;21404;-85
2022/11/20 00:58:37;;;;;;;40.75;26.33;;;;;;;-0.87;75.17;100974.07;1682371;82;20979;-86
2022/11/20 01:01:13;;;;;;;41.92;25.45;;;;;;;-0.85;75.21;100974.68;1698755;82;21689;-86
2022/11/20 01:03:45;;;;;;;42.45;25.08;;;;;;;-0.83;75.23;100973.10;1697694;82;21043;-82
2022/11/20 01:06:24;;;;;;;37.98;24.30;;;;;;;-0.80;75.15;100976.33;1703718;82;21483;-82
2022/11/20 01:08:52;;;;;;;40.30;25.72;;;;;;;-0.80;75.11;100975.04;1700000;82;22766;-82
2022/11/20 01:11:21;;;;;;;40.58;24.98;;;;;;;-0.75;75.29;100971.12;1699542;82;21114;-81
2022/11/20 01:13:49;;;;;;;37.23;23.80;;;;;;;-0.74;75.07;100971.61;1684297;83;21134;-81
2022/11/20 01:16:20;;;;;;;40.65;24.45;;;;;;;-0.74;75.07;100979.36;1704949;82;21037;-81
2022/11/20 01:18:49;;;;;;;38.30;24.50;;;;;;;-0.73;74.98;100969.91;1692465;82;21074;-82
2022/11/20 01:21:19;;;;;;;33.40;23.25;;;;;;;-0.74;75.06;100969.02;1710911;82;21751;-82
2022/11/20 01:23:46;;;;;;;37.35;24.80;;;;;;;-0.69;75.18;100970.27;1712566;82;21895;-82
2022/11/20 01:26:16;;;;;;;39.18;25.43;;;;;;;-0.63;75.18;100965.94;1709073;82;21947;-82
2022/11/20 01:28:42;;;;;;;39.20;25.57;;;;;;;-0.63;75.15;100955.59;1703917;82;21941;-82
2022/11/20 01:31:22;;;;;;;41.88;26.35;;;;;;;-0.57;74.93;100961.61;1707319;82;21020;-82
2022/11/20 01:33:51;;;;;;;45.28;27.20;;;;;;;-0.58;74.92;100959.42;1703112;82;22958;-82
2022/11/20 01:36:20;;;;;;;42.65;25.80;;;;;;;-0.57;74.95;100957.33;1710337;82;21804;-82
2022/11/20 01:38:47;;;;;;;40.12;25.02;;;;;;;-0.61;75.00;100951.03;1699976;82;21000;-83
2022/11/20 01:43:20;;;;;;;40.35;24.65;;;;;;;-0.49;74.92;100963.97;1702685;82;21094;-82
2022/11/20 01:43:43;;;;;;;38.23;24.80;;;;;;;-0.48;74.86;100959.69;1707293;82;21941;-86
2022/11/20 01:46:18;;;;;;;39.98;25.62;;;;;;;-0.49;74.70;100965.27;1704706;82;21642;-86
2022/11/20 01:48:55;;;;;;;41.63;24.52;;;;;;;-0.52;74.64;100966.33;1706166;82;21530;-85
2022/11/20 01:51:27;;;;;;;35.65;23.55;;;;;;;-0.52;74.65;100966.33;1702429;81;21045;-85
2022/11/20 01:53:54;;;;;;;34.45;23.80;;;;;;;-0.51;74.75;100968.51;1702548;82;21864;-86
2022/11/20 01:56:21;;;;;;;35.05;23.70;;;;;;;-0.46;74.80;100969.75;1697205;82;21039;-86
2022/11/20 01:58:52;;;;;;;38.60;25.12;;;;;;;-0.45;74.74;100964.70;1701050;82;21928;-86
2022/11/20 02:01:18;;;;;;;41.92;25.72;;;;;;;-0.44;74.64;100965.18;1699460;82;20996;-86
2022/11/20 02:03:45;;;;;;;34.83;23.22;;;;;;;-0.43;74.64;100967.00;1712832;82;20959;-86
2022/11/20 02:06:29;;;;;;;39.08;25.37;;;;;;;-0.48;74.43;100962.28;1703174;82;20988;-85
2022/11/20 02:08:58;;;;;;;37.28;24.95;;;;;;;-0.51;74.52;100965.52;1699415;82;21153;-86
2022/11/20 02:11:24;;;;;;;37.38;24.45;;;;;;;-0.53;74.46;100965.80;1702751;82;21967;-86
2022/11/20 02:13:54;;;;;;;36.80;24.63;;;;;;;-0.55;74.52;100968.67;1695932;82;21047;-85
2022/11/20 02:16:30;;;;;;;38.73;23.27;;;;;;;-0.54;74.55;100965.72;1704088;82;21123;-85
2022/11/20 02:18:59;;;;;;;36.05;24.07;;;;;;;-0.55;74.50;100964.80;1697397;82;21367;-85
2022/11/20 02:21:37;;;;;;;38.42;24.40;;;;;;;-0.59;74.35;100959.80;1705000;82;21070;-85
2022/11/20 02:24:14;;;;;;;40.52;24.25;;;;;;;-0.67;74.34;100964.81;1653783;82;21862;-86
2022/11/20 02:26:54;;;;;;;39.27;24.60;;;;;;;-0.69;74.43;100961.22;1698877;82;21121;-86
2022/11/20 02:29:26;;;;;;;37.50;24.47;;;;;;;-0.68;74.49;100961.70;1701470;82;21000;-85
2022/11/20 02:31:53;;;;;;;39.75;24.92;;;;;;;-0.71;74.41;100958.92;1655949;84;21028;-85
2022/11/20 02:34:20;;;;;;;42.43;25.08;;;;;;;-0.72;74.42;100961.38;1654304;84;21080;-81
2022/11/20 02:36:47;;;;;;;38.92;24.82;;;;;;;-0.74;74.48;100956.50;1661444;84;22520;-82
2022/11/20 02:39:16;;;;;;;42.53;26.90;;;;;;;-0.75;74.50;100958.19;1665407;84;21003;-82
2022/11/20 02:41:43;;;;;;;41.58;25.55;;;;;;;-0.74;74.56;100957.79;1650810;84;21015;-82
2022/11/20 02:44:10;;;;;;;41.13;26.07;;;;;;;-0.75;74.56;100958.19;1696244;82;21122;-82
2022/11/20 02:46:36;;;;;;;37.10;25.50;;;;;;;-0.75;74.55;100961.14;1699858;82;21396;-82
2022/11/20 02:49:03;;;;;;;41.18;25.95;;;;;;;-0.74;74.58;100961.27;1703760;81;21320;-80
2022/11/20 02:51:30;;;;;;;40.70;26.05;;;;;;;-0.73;74.56;100962.16;1716590;81;21256;-82
2022/11/20 02:53:57;;;;;;;40.35;25.90;;;;;;;-0.73;74.66;100963.45;1715972;81;20988;-80
2022/11/20 02:56:24;;;;;;;43.05;26.48;;;;;;;-0.70;74.70;100956.82;1720722;81;21126;-82
2022/11/20 02:58:50;;;;;;;40.58;25.20;;;;;;;-0.68;74.68;100955.64;1716320;81;21007;-82
2022/11/20 03:01:17;;;;;;;41.02;26.48;;;;;;;-0.65;74.69;100952.89;1717049;81;21711;-82
2022/11/20 03:03:44;;;;;;;41.42;26.33;;;;;;;-0.61;74.69;100954.91;1721031;81;21013;-80
2022/11/20 03:06:11;;;;;;;40.63;26.27;;;;;;;-0.61;74.62;100948.45;1714716;81;21923;-80
2022/11/20 03:08:38;;;;;;;42.58;27.32;;;;;;;-0.67;74.53;100942.84;1715488;81;21022;-81
2022/11/20 03:11:07;;;;;;;40.23;26.00;;;;;;;-0.66;74.52;100940.77;1708255;81;21046;-80
2022/11/20 03:13:33;;;;;;;45.58;28.47;;;;;;;-0.68;74.51;100942.31;1718811;81;21906;-80
2022/11/20 03:16:07;;;;;;;46.60;27.82;;;;;;;-0.71;74.46;100935.66;1717796;81;21025;-80
2022/11/20 03:18:33;;;;;;;40.30;26.05;;;;;;;-0.75;74.40;100941.39;1718830;81;21497;-80
2022/11/20 03:21:01;;;;;;;42.83;27.40;;;;;;;-0.80;74.42;100936.27;1714219;81;20978;-82
2022/11/20 03:23:31;;;;;;;43.58;27.90;;;;;;;-0.80;74.56;100931.10;1715997;81;21517;-83
2022/11/20 03:26:18;;;;;;;42.20;27.60;;;;;;;-0.82;74.46;100931.39;1718463;81;21710;-84
2022/11/20 03:28:52;;;;;;;46.70;28.17;;;;;;;-0.87;74.46;100934.02;1715410;81;21469;-83
2022/11/20 03:31:22;;;;;;;42.98;28.40;;;;;;;-0.90;74.51;100925.66;1707226;82;21028;-84
2022/11/20 03:33:49;;;;;;;48.02;30.20;;;;;;;-0.92;74.53;100928.53;1686927;83;21053;-83
2022/11/20 03:36:17;;;;;;;45.00;28.55;;;;;;;-0.95;74.45;100926.11;1649235;85;21639;-83
2022/11/20 03:38:43;;;;;;;46.30;28.42;;;;;;;-1.02;74.33;100935.97;1656518;83;21681;-83
2022/11/20 03:41:13;;;;;;;44.55;29.82;;;;;;;-1.09;74.29;100928.57;1649427;85;21079;-83
2022/11/20 03:43:40;;;;;;;44.33;28.42;;;;;;;-1.17;74.15;100932.25;1706582;82;21082;-84
2022/11/20 03:46:07;;;;;;;48.38;30.08;;;;;;;-1.29;74.10;100923.20;1703260;82;21546;-83
2022/11/20 03:48:33;;;;;;;50.00;30.55;;;;;;;-1.41;74.06;100918.02;1698683;82;21482;-83
2022/11/20 03:51:14;;;;;;;48.10;29.87;;;;;;;-1.51;74.01;100922.37;1707611;82;21665;-84
2022/11/20 03:53:42;;;;;;;47.67;29.77;;;;;;;-1.64;74.01;100919.23;1705242;81;21122;-85
2022/11/20 03:56:09;;;;;;;46.80;29.92;;;;;;;-1.76;74.04;100916.62;1713080;82;20987;-82
2022/11/20 03:58:40;;;;;;;48.58;30.65;;;;;;;-1.85;74.09;100923.26;1708226;82;21098;-83
2022/11/20 04:01:15;;;;;;;48.33;30.25;;;;;;;-1.94;74.14;100920.36;1713195;82;21097;-84
2022/11/20 04:03:42;;;;;;;55.40;30.75;;;;;;;-2.00;74.27;100929.81;1711833;82;21784;-84
2022/11/20 04:06:11;;;;;;;51.75;31.70;;;;;;;-2.07;74.30;100929.71;1712948;82;21082;-85
2022/11/20 04:08:40;;;;;;;49.60;30.88;;;;;;;-2.15;74.33;100932.09;1710406;82;21433;-84
2022/11/20 04:11:19;;;;;;;52.95;30.70;;;;;;;-2.22;74.39;100928.13;1713600;82;21618;-84
2022/11/20 04:13:48;;;;;;;50.52;32.93;;;;;;;-2.28;74.43;100925.06;1708248;82;21070;-84
2022/11/20 04:16:15;;;;;;;55.20;33.42;;;;;;;-2.36;74.51;100917.12;1712676;82;21759;-84
2022/11/20 04:18:43;;;;;;;55.25;32.60;;;;;;;-2.41;74.58;100916.75;1707738;82;21543;-84
2022/11/20 04:21:12;;;;;;;56.92;32.65;;;;;;;-2.46;74.57;100918.09;1709456;81;21583;-84
2022/11/20 04:23:38;;;;;;;54.75;32.35;;;;;;;-2.52;74.57;100916.69;1706372;82;21122;-84
2022/11/20 04:26:08;;;;;;;51.37;31.52;;;;;;;-2.60;74.61;100916.97;1712663;81;21053;-84
2022/11/20 04:28:35;;;;;;;52.62;32.00;;;;;;;-2.63;74.75;100920.61;1712780;82;21780;-83
2022/11/20 04:31:06;;;;;;;57.58;33.65;;;;;;;-2.66;74.78;100922.92;1704931;82;21028;-83
2022/11/20 04:33:34;;;;;;;57.25;34.40;;;;;;;-2.70;74.84;100922.17;1712054;81;21530;-83
2022/11/20 04:36:06;;;;;;;54.95;33.20;;;;;;;-2.78;74.77;100929.66;1710598;82;21667;-83
2022/11/20 04:38:32;;;;;;;50.38;32.08;;;;;;;-2.81;74.96;100925.16;1713156;82;21990;-83
2022/11/20 04:41:00;;;;;;;52.43;32.65;;;;;;;-2.85;75.04;100920.91;1708382;82;21741;-83
2022/11/20 04:43:28;;;;;;;51.15;31.33;;;;;;;-2.84;75.11;100926.59;1678600;81;21034;-83
2022/11/20 04:45:54;;;;;;;63.95;36.85;;;;;;;-2.89;75.06;100917.58;1711732;82;21105;-83
2022/11/20 04:48:21;;;;;;;60.30;36.00;;;;;;;-2.95;75.03;100920.20;1716395;82;21634;-82
2022/11/20 04:50:48;;;;;;;55.65;34.73;;;;;;;-3.00;75.05;100917.63;1707367;82;21050;-83
2022/11/20 04:53:17;;;;;;;65.25;37.55;;;;;;;-3.05;75.01;100923.17;1702020;82;21763;-84
2022/11/20 04:55:43;;;;;;;57.27;34.60;;;;;;;-3.14;74.90;100916.47;1701715;82;21622;-83
2022/11/20 04:58:10;;;;;;;59.93;36.55;;;;;;;-3.24;74.84;100910.47;1704283;82;20982;-83
2022/11/20 05:00:37;;;;;;;54.08;34.27;;;;;;;-3.33;74.88;100908.91;1702365;82;21583;-84
2022/11/20 05:03:04;;;;;;;54.35;33.00;;;;;;;-3.39;74.85;100909.70;1704661;82;21014;-83
2022/11/20 05:05:31;;;;;;;56.50;31.40;;;;;;;-3.46;74.85;100909.96;1691200;82;21707;-82
2022/11/20 05:07:58;;;;;;;59.70;34.65;;;;;;;-3.50;74.97;100907.91;1694008;82;21098;-83
2022/11/20 05:10:28;;;;;;;55.73;33.90;;;;;;;-3.52;75.11;100910.34;1702208;82;21466;-83
2022/11/20 05:12:54;;;;;;;56.88;32.20;;;;;;;-3.54;75.11;100908.44;1699906;82;21186;-83
2022/11/20 05:15:21;;;;;;;56.73;32.23;;;;;;;-3.58;75.14;100908.56;1697696;82;21090;-83
2022/11/20 05:17:51;;;;;;;72.10;38.30;;;;;;;-3.58;75.25;100905.98;1701105;82;21728;-82
2022/11/20 05:20:18;;;;;;;58.28;33.58;;;;;;;-3.58;75.21;100901.23;1702650;82;21067;-83
2022/11/20 05:22:45;;;;;;;69.20;38.98;;;;;;;-3.61;75.25;100899.28;1694947;82;21072;-82
2022/11/20 05:25:12;;;;;;;87.62;44.65;;;;;;;-3.62;75.28;100898.79;1693284;82;21382;-83
2022/11/20 05:27:39;;;;;;;88.72;47.05;;;;;;;-3.63;75.25;100894.41;1703034;82;21067;-83
2022/11/20 05:30:07;;;;;;;84.83;44.08;;;;;;;-3.65;75.21;100895.06;1701632;82;21796;-83
2022/11/20 05:32:34;;;;;;;85.53;45.48;;;;;;;-3.70;75.22;100889.52;1702543;82;21083;-85
2022/11/20 05:35:00;;;;;;;142.07;64.70;;;;;;;-3.72;75.24;100891.06;1701558;82;21544;-84
2022/11/20 05:37:27;;;;;;;79.60;43.50;;;;;;;-3.74;75.31;100886.17;1694033;82;21161;-84
2022/11/20 05:39:54;;;;;;;70.30;40.48;;;;;;;-3.75;75.45;100881.42;1713990;82;21065;-85
2022/11/20 05:42:30;;;;;;;100.58;50.73;;;;;;;-3.70;75.60;100883.08;1702550;82;21806;-84
2022/11/20 05:44:59;;;;;;;73.10;41.63;;;;;;;-3.63;75.70;100878.08;1705765;82;21053;-84
2022/11/20 05:47:27;;;;;;;118.95;56.13;;;;;;;-3.56;75.81;100878.71;1704489;82;21067;-83
2022/11/20 05:49:54;;;;;;;118.22;55.85;;;;;;;-3.55;75.75;100878.31;1697372;82;21049;-84
2022/11/20 05:52:21;;;;;;;70.28;37.33;;;;;;;-3.55;75.70;100877.03;1724154;82;21050;-84
2022/11/20 05:54:48;;;;;;;65.83;36.85;;;;;;;-3.55;75.72;100870.59;1708354;81;21777;-83
2022/11/20 05:57:14;;;;;;;64.07;38.17;;;;;;;-3.57;75.62;100869.17;1712839;82;21567;-84
2022/11/20 05:59:41;;;;;;;61.58;36.40;;;;;;;-3.60;75.56;100867.66;1723445;82;21080;-84
2022/11/20 06:02:08;;;;;;;86.75;45.03;;;;;;;-3.59;75.63;100870.72;1714827;82;21213;-84
2022/11/20 06:04:36;;;;;;;61.45;36.93;;;;;;;-3.55;75.83;100868.95;1710377;82;21522;-84
2022/11/20 06:07:04;;;;;;;59.65;34.55;;;;;;;-3.44;76.01;100870.20;1713987;82;22318;-83
2022/11/20 06:09:31;;;;;;;61.73;35.78;;;;;;;-3.39;75.97;100870.20;1710815;82;21065;-83
2022/11/20 06:11:58;;;;;;;57.60;33.98;;;;;;;-3.36;75.94;100858.86;1712356;82;21380;-83
2022/11/20 06:14:25;;;;;;;61.48;34.60;;;;;;;-3.31;75.97;100860.14;1720079;81;21051;-84
2022/11/20 06:16:51;;;;;;;65.70;36.00;;;;;;;-3.30;75.79;100858.09;1705961;82;21058;-84
2022/11/20 06:19:18;;;;;;;68.33;39.33;;;;;;;-3.26;75.85;100859.25;1705741;82;22519;-84
2022/11/20 06:21:49;;;;;;;112.37;55.45;;;;;;;-3.18;75.96;100864.63;1713624;82;21053;-84
2022/11/20 06:24:16;;;;;;;82.97;43.78;;;;;;;-3.06;76.06;100863.42;1718407;82;21018;-83
2022/11/20 06:26:43;;;;;;;77.47;41.33;;;;;;;-2.97;75.89;100854.75;1716328;82;21081;-83
2022/11/20 06:29:11;;;;;;;63.08;35.35;;;;;;;-2.89;75.86;100857.98;1713042;82;21062;-83
2022/11/20 06:31:37;;;;;;;62.80;35.35;;;;;;;-2.83;75.75;100856.28;1713813;82;22441;-84
2022/11/20 06:34:05;;;;;;;62.55;36.03;;;;;;;-2.74;75.86;100852.75;1677332;83;21078;-84
2022/11/20 06:36:33;;;;;;;63.65;35.92;;;;;;;-2.71;75.57;100852.08;1711658;82;21106;-84
2022/11/20 06:39:00;;;;;;;57.88;34.43;;;;;;;-2.75;75.36;100857.77;1707706;82;21090;-83
2022/11/20 06:41:27;;;;;;;54.90;32.85;;;;;;;-2.78;75.39;100853.66;1721344;82;21406;-83
2022/11/20 06:43:54;;;;;;;55.17;33.15;;;;;;;-2.76;75.45;100854.30;1707671;82;21778;-83
2022/11/20 06:46:21;;;;;;;61.02;34.80;;;;;;;-2.73;75.45;100860.08;1709862;82;21061;-83
2022/11/20 06:48:48;;;;;;;91.87;51.10;;;;;;;-2.68;75.59;100861.36;1712405;82;21648;-83
2022/11/20 06:51:15;;;;;;;64.95;36.90;;;;;;;-2.61;75.74;100867.52;1711884;82;21078;-83
2022/11/20 06:53:41;;;;;;;61.42;36.98;;;;;;;-2.48;75.81;100870.64;1706366;82;21689;-87
2022/11/20 06:56:09;;;;;;;60.10;36.03;;;;;;;-2.41;75.62;100873.33;1706394;82;21869;-84
2022/11/20 06:58:37;;;;;;;62.98;36.20;;;;;;;-2.29;75.73;100873.38;1709572;82;21058;-86
2022/11/20 07:01:10;;;;;;;65.45;35.35;;;;;;;-2.19;75.73;100868.17;1709616;82;21620;-83
2022/11/20 07:03:36;;;;;;;60.78;37.45;;;;;;;-2.06;75.68;100863.58;1707825;82;21082;-83
2022/11/20 07:06:03;;;;;;;67.80;39.92;;;;;;;-1.94;75.66;100863.21;1703377;82;21047;-83
2022/11/20 07:08:30;;;;;;;68.28;40.10;;;;;;;-1.85;75.57;100856.58;1669783;84;21746;-83
2022/11/20 07:10:59;;;;;;;74.70;42.70;;;;;;;-1.74;75.61;100857.40;1638034;86;21223;-83
2022/11/20 07:13:26;;;;;;;64.22;39.60;;;;;;;-1.63;75.54;100855.23;1674465;84;21392;-81
2022/11/20 07:15:54;;;;;;;73.07;43.33;;;;;;;-1.54;75.53;100855.89;1640185;85;21449;-83
2022/11/20 07:18:23;;;;;;;64.10;40.80;;;;;;;-1.43;75.57;100858.88;1651487;84;21045;-84
2022/11/20 07:20:49;;;;;;;65.57;40.63;;;;;;;-1.32;75.45;100862.27;1655073;84;21858;-83
2022/11/20 07:23:16;;;;;;;64.42;40.00;;;;;;;-1.24;75.46;100865.05;1665108;84;21118;-83
2022/11/20 07:25:43;;;;;;;60.73;36.65;;;;;;;-1.18;75.47;100855.16;1679533;83;22180;-83
2022/11/20 07:28:10;;;;;;;63.70;38.20;;;;;;;-1.10;75.50;100862.58;1646918;85;21146;-83
2022/11/20 07:30:37;;;;;;;61.10;38.85;;;;;;;-1.06;75.46;100855.55;1647442;84;21089;-84
2022/11/20 07:33:04;;;;;;;67.10;39.15;;;;;;;-0.94;75.57;100855.53;1646348;84;21994;-80
2022/11/20 07:35:31;;;;;;;66.28;38.85;;;;;;;-0.81;75.61;100846.22;1650405;84;21078;-81
2022/11/20 07:37:58;;;;;;;71.55;43.45;;;;;;;-0.69;75.49;100851.36;1647710;84;21038;-81
2022/11/20 07:40:24;;;;;;;69.03;39.48;;;;;;;-0.64;75.25;100848.72;1702586;82;21612;-80
2022/11/20 07:42:52;;;;;;;68.35;38.80;;;;;;;-0.61;75.06;100845.44;1703166;83;21177;-81
2022/11/20 07:45:19;;;;;;;78.95;44.73;;;;;;;-0.57;75.12;100846.55;1699160;82;22264;-82
2022/11/20 07:47:46;;;;;;;70.95;42.78;;;;;;;-0.50;75.09;100837.16;1704466;82;21183;-80
2022/11/20 07:50:13;;;;;;;88.12;48.78;;;;;;;-0.45;74.93;100831.89;1701365;82;21453;-80
2022/11/20 07:52:40;;;;;;;77.05;47.33;;;;;;;-0.50;74.60;100835.86;1705028;82;21428;-79
2022/11/20 07:55:08;;;;;;;71.20;42.95;;;;;;;-0.48;74.48;100832.98;1705886;82;21058;-81
2022/11/20 07:57:35;;;;;;;67.78;42.40;;;;;;;-0.50;74.41;100840.63;1715405;81;21731;-81
2022/11/20 08:00:02;;;;;;;69.87;42.38;;;;;;;-0.55;74.39;100837.22;1712604;81;21049;-81
2022/11/20 08:02:29;;;;;;;64.75;38.45;;;;;;;-0.48;74.54;100833.87;1721337;81;21139;-82
2022/11/20 08:04:56;;;;;;;64.12;40.15;;;;;;;-0.41;74.28;100832.63;1706236;81;21157;-83
2022/11/20 08:07:23;;;;;;;67.60;41.63;;;;;;;-0.43;74.23;100838.09;1717843;81;21315;-84
2022/11/20 08:09:49;;;;;;;65.20;41.20;;;;;;;-0.40;74.07;100830.13;1712093;81;21742;-82
2022/11/20 08:15:07;;;;;;;70.10;41.95;;;;;;;-0.35;73.98;100822.70;1714935;81;22001;-81
2022/11/20 08:17:34;;;;;;;98.58;59.88;;;;;;;-0.29;74.17;100830.00;1714775;81;21045;-82
2022/11/20 08:20:02;;;;;;;334.20;184.37;;;;;;;-0.20;74.12;100829.34;1718656;81;21299;-82
2022/11/20 08:22:30;;;;;;;163.75;92.27;;;;;;;-0.23;73.95;100826.13;1714579;81;22577;-83
2022/11/20 08:24:57;;;;;;;77.97;46.85;;;;;;;-0.15;74.33;100829.27;1721106;81;21584;-83
2022/11/20 08:27:25;;;;;;;66.47;40.65;;;;;;;-0.06;74.23;100834.16;1714726;81;21594;-80
2022/11/20 08:29:51;;;;;;;71.57;44.53;;;;;;;0.01;74.20;100833.80;1718532;81;22119;-83
2022/11/20 08:32:18;;;;;;;66.92;39.70;;;;;;;0.00;73.96;100830.73;1718580;81;21421;-82
2022/11/20 08:34:46;;;;;;;70.70;40.88;;;;;;;-0.04;73.82;100831.28;1696632;82;23035;-83
2022/11/20 08:37:13;;;;;;;70.67;42.30;;;;;;;-0.08;73.94;100831.46;1707709;82;21085;-84
2022/11/20 08:39:39;;;;;;;68.60;39.55;;;;;;;-0.05;73.84;100833.38;1704569;82;21082;-82
2022/11/20 08:42:09;;;;;;;69.67;40.20;;;;;;;-0.09;73.70;100830.98;1707436;82;21113;-83
2022/11/20 08:44:42;;;;;;;123.33;68.25;;;;;;;-0.08;73.91;100826.69;1707119;82;21172;-87
2022/11/20 08:47:12;;;;;;;627.47;352.52;;;;;;;-0.08;73.96;100823.70;1706025;82;23721;-83
2022/11/20 08:49:39;;;;;;;427.17;259.32;;;;;;;-0.06;73.85;100819.52;1706582;82;21279;-83
2022/11/20 08:52:06;;;;;;;287.55;186.95;;;;;;;-0.03;73.93;100818.45;1693906;82;21166;-82
2022/11/20 08:54:32;;;;;;;166.75;116.20;;;;;;;-0.18;73.34;100806.17;1684000;83;21215;-81
2022/11/20 08:56:59;;;;;;;210.15;146.98;;;;;;;-0.26;73.44;100818.58;1678984;83;21535;-83
2022/11/20 08:59:26;;;;;;;74.10;46.80;;;;;;;-0.30;73.54;100812.66;1685443;83;21737;-82
2022/11/20 09:01:53;;;;;;;73.05;45.12;;;;;;;-0.34;73.43;100808.97;1687268;83;21126;-84
2022/11/20 09:04:19;;;;;;;71.92;38.90;;;;;;;-0.40;73.58;100812.02;1678919;83;21067;-84
2022/11/20 09:06:50;;;;;;;68.95;44.48;;;;;;;-0.40;73.73;100808.14;1683825;83;21505;-85
2022/11/20 09:09:16;;;;;;;82.88;51.83;;;;;;;-0.35;73.82;100809.77;1686657;83;21086;-83
2022/11/20 09:11:42;;;;;;;87.85;51.88;;;;;;;-0.30;73.76;100808.41;1673581;82;21750;-81
2022/11/20 09:14:09;;;;;;;79.37;50.60;;;;;;;-0.32;73.80;100803.53;1680175;83;21075;-80
2022/11/20 09:16:36;;;;;;;85.47;49.05;;;;;;;-0.31;73.73;100805.31;1682649;83;21106;-80
2022/11/20 09:19:04;;;;;;;61.70;37.60;;;;;;;-0.30;73.85;100807.49;1689370;83;21122;-80
2022/11/20 09:21:30;;;;;;;63.10;38.05;;;;;;;-0.19;74.08;100802.66;1685443;83;21536;-81
2022/11/20 09:23:57;;;;;;;67.67;41.65;;;;;;;-0.07;74.12;100804.81;1685437;83;21764;-81
2022/11/20 09:26:24;;;;;;;61.55;36.85;;;;;;;0.08;74.14;100796.30;1689283;83;21713;-82
2022/11/20 09:28:51;;;;;;;71.05;38.55;;;;;;;0.19;74.07;100798.81;1687894;83;21461;-81
2022/11/20 09:31:23;;;;;;;68.52;40.95;;;;;;;0.27;73.97;100795.44;1684553;83;21074;-83
2022/11/20 09:33:50;;;;;;;83.17;49.40;;;;;;;0.35;73.98;100792.06;1680636;83;21078;-81
2022/11/20 09:36:18;;;;;;;72.03;43.13;;;;;;;0.38;73.66;100792.28;1680483;83;21734;-82
2022/11/20 09:38:47;;;;;;;71.97;44.03;;;;;;;0.33;73.52;100785.89;1683643;83;21027;-81
2022/11/20 09:41:48;;;;;;;83.03;51.08;;;;;;;0.31;73.34;100781.89;1683185;83;21109;-81
2022/11/20 09:44:45;;;;;;;78.02;46.58;;;;;;;0.32;73.41;100781.48;1683499;83;21027;-82
2022/11/20 09:47:32;;;;;;;76.75;45.20;;;;;;;0.31;73.52;100783.19;1682678;83;21062;-81
2022/11/20 09:50:27;;;;;;;81.55;47.98;;;;;;;0.45;73.68;100781.91;1686231;83;21943;-81
2022/11/20 09:53:05;;;;;;;76.12;46.02;;;;;;;0.53;73.64;100778.16;1697763;81;20988;-82
2022/11/20 09:55:32;;;;;;;80.87;45.35;;;;;;;0.60;73.63;100777.73;1709878;82;21034;-82
2022/11/20 09:57:59;;;;;;;85.65;49.53;;;;;;;0.66;73.66;100772.97;1681231;82;21543;-82
2022/11/20 10:00:26;;;;;;;92.02;53.60;;;;;;;0.74;73.68;100767.88;1709305;82;21021;-81
2022/11/20 10:03:03;;;;;;;78.57;49.03;;;;;;;0.81;73.66;100766.59;1708480;82;21731;-81
2022/11/20 10:05:45;;;;;;;86.32;48.70;;;;;;;0.87;73.62;100766.97;1697618;82;20994;-82
2022/11/20 10:08:30;;;;;;;97.67;56.68;;;;;;;0.96;73.74;100764.97;1703226;82;20991;-82
2022/11/20 10:11:17;;;;;;;121.33;69.42;;;;;;;1.04;73.61;100761.97;1701749;82;20990;-82
2022/11/20 10:14:12;;;;;;;95.30;55.75;;;;;;;1.11;73.62;100759.86;1694131;82;20975;-82
2022/11/20 10:17:16;;;;;;;103.00;61.18;;;;;;;1.20;73.57;100758.22;1707462;82;21748;-81
2022/11/20 10:20:18;;;;;;;109.57;65.22;;;;;;;1.28;73.44;100754.43;1708628;82;21271;-81
2022/11/20 10:22:50;;;;;;;110.92;65.80;;;;;;;1.40;73.35;100754.69;1702703;82;21007;-82
2022/11/20 10:25:20;;;;;;;106.90;64.12;;;;;;;1.50;73.20;100754.44;1712211;82;21012;-81
2022/11/20 10:28:17;;;;;;;97.08;60.48;;;;;;;1.54;73.15;100754.73;1710063;82;21057;-81
2022/11/20 10:30:45;;;;;;;99.42;58.50;;;;;;;1.59;73.13;100755.01;1708688;82;21745;-80
2022/11/20 10:33:19;;;;;;;92.82;57.08;;;;;;;1.63;73.07;100750.49;1705826;82;21188;-80
2022/11/20 10:36:02;;;;;;;89.50;54.98;;;;;;;1.67;73.02;100743.79;1709791;82;20982;-81
2022/11/20 10:38:49;;;;;;;102.78;55.20;;;;;;;1.71;73.10;100745.80;1708812;82;21565;-81
2022/11/20 10:41:30;;;;;;;89.30;53.52;;;;;;;1.80;73.04;100742.84;1673376;84;21508;-80
2022/11/20 10:47:20;;;;;;;97.67;56.15;;;;;;;2.00;72.91;100741.44;1629974;85;21419;-82
2022/11/20 10:49:54;;;;;;;98.87;55.83;;;;;;;1.97;72.51;100744.77;1645699;85;21516;-80
2022/11/20 10:52:51;;;;;;;95.85;54.10;;;;;;;1.99;72.64;100735.36;1645210;84;21590;-83
2022/11/20 10:55:35;;;;;;;84.87;51.80;;;;;;;2.02;72.64;100731.63;1624107;83;21485;-80
2022/11/20 10:58:15;;;;;;;88.42;52.10;;;;;;;2.09;72.46;100733.78;1660274;84;21943;-81
2022/11/20 11:00:42;;;;;;;82.15;51.05;;;;;;;2.10;72.51;100731.69;1658599;84;21001;-80
2022/11/20 11:03:28;;;;;;;81.25;51.40;;;;;;;2.20;72.64;100724.03;1698186;82;21000;-82
2022/11/20 11:06:31;;;;;;;73.15;46.77;;;;;;;2.30;72.55;100726.75;1699674;82;21030;-80
2022/11/20 11:09:04;;;;;;;85.42;51.23;;;;;;;2.33;72.56;100725.64;1700252;82;21482;-81
2022/11/20 11:11:33;;;;;;;86.50;52.80;;;;;;;2.34;72.32;100722.22;1698266;82;21318;-82
2022/11/20 11:14:11;;;;;;;84.00;49.67;;;;;;;2.26;72.14;100724.78;1680800;83;21686;-83
2022/11/20 11:16:53;;;;;;;90.60;51.55;;;;;;;2.18;72.05;100720.83;1697435;82;21004;-82
2022/11/20 11:19:20;;;;;;;83.97;52.27;;;;;;;2.14;72.14;100715.48;1664511;83;21548;-82
2022/11/20 11:21:50;;;;;;;88.25;52.20;;;;;;;2.13;72.17;100718.87;1657107;84;21536;-81
2022/11/20 11:24:26;;;;;;;84.15;51.35;;;;;;;2.13;72.20;100727.95;1673907;83;21760;-80
2022/11/20 11:27:03;;;;;;;85.42;52.48;;;;;;;2.16;72.27;100717.25;1700513;82;21036;-83
2022/11/20 11:29:30;;;;;;;89.55;54.33;;;;;;;2.18;72.17;100719.53;1697018;82;20996;-79